Latest Weather Observations for Snowtown

IDS60801

Issued at 6:01 am CDT Wednesday 22 November 2017 (issued every 30 minutes, with the page automatically refreshed every 10 minutes)

About weather observations | Map of weather stations | Latest weather observations for SA | Other Formats
Station Details ID: 021133 Name: RAYVILLE PARK Lat: -33.77 Lon: 138.22 Height: 109.1 m
Data from the previous 72 hours. | See also: Recent months at Snowtown
Date/Time
CDT
Temp
°C
App
Temp
°C
Dew
Point
°C
Rel
Hum
%
Delta-T
°C
Wind Press
QNH
hPa
Press
MSL
hPa
Rain since
9am
mm
Dir  Spd
km/h
Gust
km/h
Spd
kts
Gust
kts
22/06:00am 16.6 11.3 1.9 37 6.6 N 19 20 10 11 1010.1 1009.8 0.0
22/05:30am 16.7 11.9 0.4 33 7.1 N 15 15 8 8 1009.9 1009.6 0.0
22/05:00am 18.4 12.9 0.5 30 7.9 N 19 22 10 12 1009.8 1009.5 0.0
22/04:30am 17.8 12.3 0.9 32 7.5 N 19 20 10 11 1009.8 1009.5 0.0
22/04:00am 17.7 12.6 0.8 32 7.5 N 17 19 9 10 1009.7 1009.4 0.0
22/03:30am 16.9 11.8 1.0 34 7.0 NNW 17 19 9 10 1009.7 1009.4 0.0
22/03:00am 19.0 14.0 1.1 30 8.1 N 17 20 9 11 1009.8 1009.5 0.0
22/02:30am 17.1 12.4 0.7 33 7.2 NNW 15 17 8 9 1010.1 1009.8 0.0
22/02:00am 19.0 14.0 1.1 30 8.1 N 17 19 9 10 1010.3 1010.0 0.0
22/01:30am 17.0 12.2 0.2 32 7.3 N 15 17 8 9 1010.5 1010.2 0.0
22/01:00am 16.9 12.5 0.1 32 7.3 N 13 15 7 8 1010.8 1010.5 0.0
22/12:30am 17.3 12.8 0.0 31 7.5 N 13 15 7 8 1011.1 1010.8 0.0
22/12:00am 18.0 13.5 -0.3 29 7.9 N 13 15 7 8 1011.1 1010.8 0.0
 
Date/Time
CDT
Temp
°C
App
Temp
°C
Dew
Point
°C
Rel
Hum
%
Delta-T
°C
Wind Press
QNH
hPa
Press
MSL
hPa
Rain since
9am
mm
Dir  Spd
km/h
Gust
km/h
Spd
kts
Gust
kts
21/11:30pm 18.9 13.6 -0.5 27 8.5 N 17 19 9 10 1011.3 1011.0 0.0
21/11:00pm 20.8 15.9 -0.5 24 9.4 N 15 19 8 10 1011.3 1011.0 0.0
21/10:30pm 19.4 14.8 -1.1 25 8.9 N 13 15 7 8 1011.4 1011.1 0.0
21/10:00pm 20.0 15.3 -1.7 23 9.3 N 13 15 7 8 1011.5 1011.2 0.0
21/09:30pm 21.3 17.0 -1.9 21 10.0 N 11 13 6 7 1011.3 1011.0 0.0
21/09:00pm 22.2 17.9 -1.8 20 10.5 NNW 11 13 6 7 1011.0 1010.7 0.0
21/08:30pm 24.8 19.5 -3.6 15 12.3 N 15 19 8 10 1010.8 1010.5 0.0
21/08:00pm 26.9 21.6 -3.8 13 13.4 NE 15 17 8 9 1010.6 1010.3 0.0
21/07:30pm 31.5 25.9 -2.5 11 15.8 NE 17 24 9 13 1010.3 1010.0 0.0
21/07:00pm 33.3 26.1 -2.4 10 16.8 ENE 26 35 14 19 1010.0 1009.7 0.0
21/06:30pm 34.1 26.4 -3.2 9 17.5 NE 28 39 15 21 1009.9 1009.6 0.0
21/06:00pm 34.5 27.9 -2.9 9 17.7 NNE 22 35 12 19 1009.9 1009.6 0.0
21/05:30pm 35.3 28.4 -2.3 9 18.0 NE 24 35 13 19 1010.0 1009.7 0.0
21/05:00pm 35.0 29.3 -1.1 10 17.6 NE 19 32 10 17 1010.1 1009.8 0.0
21/04:30pm 35.3 29.4 -0.9 10 17.8 NE 20 35 11 19 1010.3 1010.0 0.0
21/04:00pm 35.4 28.9 0.5 11 17.5 NE 24 39 13 21 1010.5 1010.2 0.0
21/03:30pm 35.4 28.9 0.5 11 17.5 NE 24 43 13 23 1010.9 1010.6 0.0
21/03:00pm 35.1 28.0 1.5 12 17.1 NE 28 41 15 22 1011.3 1011.0 0.0
21/02:30pm 35.8 30.3 2.0 12 17.4 NNE 20 35 11 19 1011.6 1011.3 0.0
21/02:18pm 34.6 27.5 1.1 12 16.9 NNE 28 46 15 25 1011.8 1011.5 0.0
21/02:10pm 34.2 27.4 0.8 12 16.7 NE 26 43 14 23 1011.9 1011.7 0.0
21/02:00pm 34.0 27.5 0.6 12 16.6 NE 24 46 13 25 1012.0 1011.8 0.0
21/01:34pm 32.9 25.7 0.9 13 15.9 NNE 28 46 15 25 1012.4 1012.2 0.0
21/01:30pm 33.2 26.4 1.1 13 16.0 NNE 26 37 14 20 1012.4 1012.2 0.0
21/01:00pm 34.5 26.8 2.1 13 16.6 NE 32 44 17 24 1013.0 1012.7 0.0
21/12:30pm 33.8 26.9 2.6 14 16.0 NNE 28 46 15 25 1013.5 1013.2 0.0
21/12:27pm 34.3 27.5 3.0 14 16.2 NNE 28 46 15 25 1013.5 1013.2 0.0
21/12:00pm 34.3 26.7 3.0 14 16.2 NNE 32 44 17 24 1013.7 1013.4 0.0
21/11:37am 33.2 25.6 3.1 15 15.5 NNE 32 54 17 29 1014.0 1013.7 0.0
21/11:30am 33.3 25.2 3.2 15 15.6 NNE 35 48 19 26 1014.2 1013.9 0.0
21/11:00am 33.1 24.2 3.0 15 15.5 NNE 39 52 21 28 1014.3 1014.0 0.0
21/10:30am 32.2 23.1 4.1 17 14.6 NNE 41 54 22 29 1014.4 1014.1 0.0
21/10:00am 31.6 21.5 3.6 17 14.4 NNE 46 59 25 32 1014.4 1014.1 0.0
21/09:30am 31.2 21.5 4.1 18 14.0 NNE 44 57 24 31 1014.4 1014.1 0.0
21/09:00am 31.4 22.6 3.4 17 14.4 NNE 39 54 21 29 1014.5 1014.2 0.4
21/08:30am 29.3 19.6 4.0 20 12.9 NNE 44 57 24 31 1014.4 1014.1 0.4
21/08:01am 28.7 21.3 4.9 22 12.3 NNE 33 56 18 30 1014.4 1014.1 0.4
21/08:00am 28.6 21.4 4.8 22 12.3 NNE 32 44 17 24 1014.4 1014.1 0.4
21/07:58am 28.4 21.5 4.6 22 12.2 NNE 30 44 16 24 1014.4 1014.1 0.4
21/07:30am 25.4 20.7 6.1 29 10.0 NNE 20 26 11 14 1014.2 1013.9 0.4
21/07:00am 24.1 20.1 6.8 33 9.0 N 17 19 9 10 1014.2 1013.9 0.4
21/06:30am 22.8 18.6 7.4 37 8.0 N 19 24 10 13 1014.0 1013.7 0.4
21/06:00am 20.7 17.4 8.0 44 6.6 N 15 20 8 11 1013.7 1013.4 0.4
21/05:30am 19.9 16.7 8.3 47 6.1 N 15 17 8 9 1013.5 1013.2 0.4
21/05:00am 19.1 16.1 7.5 47 5.9 N 13 15 7 8 1013.3 1013.0 0.4
21/04:30am 21.4 17.4 8.3 43 6.9 NNE 19 20 10 11 1013.2 1012.9 0.4
21/04:00am 20.8 17.1 7.8 43 6.8 N 17 20 9 11 1013.2 1012.9 0.4
21/03:30am 21.5 18.2 8.1 42 7.0 N 15 19 8 10 1013.1 1012.8 0.4
21/03:00am 21.4 18.5 8.0 42 7.0 NNW 13 17 7 9 1013.2 1012.9 0.4
21/02:30am 22.6 19.2 7.6 38 7.9 NNW 15 20 8 11 1013.2 1012.9 0.4
21/02:00am 21.2 18.2 7.8 42 7.0 NNW 13 17 7 9 1013.2 1012.9 0.4
21/01:30am 22.0 18.5 7.4 39 7.6 NNW 15 17 8 9 1013.3 1013.0 0.4
21/01:00am 21.3 17.9 7.5 41 7.2 NNW 15 17 8 9 1013.5 1013.2 0.4
21/12:30am 22.0 18.9 7.4 39 7.6 NNW 13 19 7 10 1013.6 1013.3 0.4
21/12:00am 21.4 18.3 7.3 40 7.3 NNW 13 15 7 8 1013.7 1013.4 0.4
 
Date/Time
CDT
Temp
°C
App
Temp
°C
Dew
Point
°C
Rel
Hum
%
Delta-T
°C
Wind Press
QNH
hPa
Press
MSL
hPa
Rain since
9am
mm
Dir  Spd
km/h
Gust
km/h
Spd
kts
Gust
kts
20/11:30pm 20.9 18.1 6.8 40 7.2 N 11 13 6 7 1013.6 1013.3 0.4
20/11:00pm 20.4 18.5 7.4 43 6.7 NNE 7 9 4 5 1013.6 1013.3 0.4
20/10:30pm 21.5 19.4 6.6 38 7.6 NNE 7 11 4 6 1013.4 1013.1 0.4
20/10:00pm 21.8 19.9 6.5 37 7.8 NNE 6 9 3 5 1013.3 1013.0 0.4
20/09:30pm 22.1 19.9 6.3 36 8.1 NNE 7 9 4 5 1013.0 1012.7 0.4
20/09:00pm 23.5 20.0 5.4 31 9.2 NE 13 17 7 9 1012.5 1012.3 0.4
20/08:30pm 24.7 21.1 5.0 28 10.0 ENE 13 15 7 8 1012.2 1012.0 0.4
20/08:00pm 28.2 23.8 4.5 22 12.1 ENE 17 20 9 11 1011.9 1011.7 0.4
20/07:30pm 31.1 25.8 4.8 19 13.8 ENE 22 30 12 16 1011.6 1011.3 0.4
20/07:00pm 32.4 26.6 4.2 17 14.7 ENE 24 30 13 16 1011.3 1011.0 0.4
20/06:30pm 33.2 30.7 6.5 19 14.6 ENE 9 19 5 10 1011.2 1010.9 0.4
20/06:00pm 31.9 28.7 6.9 21 13.6 WNW 13 20 7 11 1011.1 1010.8 0.4
20/05:30pm 32.6 28.3 5.2 18 14.6 NE 17 35 9 19 1011.1 1010.8 0.4
20/05:14pm 32.4 26.5 7.3 21 13.8 ENE 28 46 15 25 1011.0 1010.7 0.4
20/05:00pm 34.9 29.9 4.4 15 16.2 NNE 20 30 11 16 1011.1 1010.8 0.4
20/04:30pm 33.3 27.0 5.8 18 14.8 NE 28 39 15 21 1011.2 1010.9 0.4
20/04:00pm 33.0 27.4 5.5 18 14.7 ENE 24 39 13 21 1011.2 1010.9 0.4
20/03:30pm 33.4 29.4 8.1 21 14.2 NNE 19 32 10 17 1011.5 1011.2 0.4
20/03:00pm 29.8 29.6 13.5 36 9.8 WSW 7 13 4 7 1012.0 1011.8 0.4
20/02:30pm 29.6 28.7 12.5 35 10.1 NNE 9 13 5 7 1012.3 1012.1 0.4
20/02:00pm 32.2 28.1 6.4 20 14.0 NE 17 26 9 14 1012.6 1012.4 0.0
20/01:30pm 32.5 27.9 6.7 20 14.1 NNE 20 28 11 15 1013.0 1012.7 0.0
20/01:00pm 33.1 27.7 6.4 19 14.5 NNE 24 35 13 19 1013.2 1012.9 0.0
20/12:30pm 33.3 27.0 7.3 20 14.4 NNE 30 44 16 24 1013.7 1013.4 0.0
20/12:00pm 33.7 28.0 8.3 21 14.3 NE 28 39 15 21 1014.0 1013.7 0.0
20/11:30am 32.3 25.9 8.5 23 13.3 NE 32 41 17 22 1014.5 1014.2 0.0
20/11:00am 31.5 25.6 9.1 25 12.6 NE 30 44 16 24 1014.8 1014.5 0.0
20/10:30am 31.9 26.1 9.4 25 12.8 NE 30 41 16 22 1014.8 1014.5 0.0
20/10:00am 30.7 24.6 9.6 27 11.9 NNE 32 39 17 21 1015.0 1014.7 0.0
20/09:30am 29.9 23.5 9.4 28 11.5 NNE 33 43 18 23 1015.2 1014.9 0.0
20/09:00am 28.7 22.3 9.4 30 10.8 NE 33 44 18 24 1015.2 1014.9 0.0
20/08:30am 27.8 21.6 10.1 33 10.0 NE 33 43 18 23 1015.2 1014.9 0.0
20/08:00am 26.6 21.7 9.9 35 9.3 NE 26 33 14 18 1015.1 1014.8 0.0
20/07:30am 25.3 21.6 10.0 38 8.5 NE 20 26 11 14 1015.0 1014.7 0.0
20/07:00am 23.5 21.2 10.6 44 7.2 NNE 13 17 7 9 1014.9 1014.6 0.0
20/06:30am 20.2 17.4 10.0 52 5.5 NNE 15 17 8 9 1014.7 1014.4 0.0
20/06:00am 18.8 16.0 8.5 51 5.4 NNE 13 15 7 8 1014.3 1014.0 0.0
20/05:30am 18.7 16.4 8.9 53 5.1 N 11 15 6 8 1014.1 1013.8 0.0
20/05:00am 18.1 16.0 8.1 52 5.1 NNE 9 11 5 6 1013.8 1013.5 0.0
20/04:30am 18.6 16.7 7.4 48 5.7 N 7 9 4 5 1013.8 1013.5 0.0
20/04:00am 19.8 17.9 7.5 45 6.3 NNE 7 9 4 5 1013.7 1013.4 0.0
20/03:30am 22.1 19.6 8.2 41 7.3 NE 11 17 6 9 1013.4 1013.1 0.0
20/03:00am 20.4 19.2 8.1 45 6.4 NE 4 9 2 5 1013.4 1013.1 0.0
20/02:30am 21.7 19.5 7.9 41 7.2 NE 9 17 5 9 1013.3 1013.0 0.0
20/02:00am 21.6 19.5 8.1 42 7.1 NE 9 13 5 7 1013.1 1012.8 0.0
20/01:30am 23.2 20.2 7.7 37 8.2 NE 13 20 7 11 1013.3 1013.0 0.0
20/01:00am 23.3 20.6 7.4 36 8.3 NE 11 19 6 10 1013.4 1013.1 0.0
20/12:30am 22.8 21.0 7.0 36 8.2 NNE 6 13 3 7 1013.4 1013.1 0.0
20/12:00am 23.2 21.0 7.7 37 8.2 NNE 9 15 5 8 1013.2 1012.9 0.0
 
Date/Time
CDT
Temp
°C
App
Temp
°C
Dew
Point
°C
Rel
Hum
%
Delta-T
°C
Wind Press
QNH
hPa
Press
MSL
hPa
Rain since
9am
mm
Dir  Spd
km/h
Gust
km/h
Spd
kts
Gust
kts
19/11:30pm 24.0 20.5 7.2 34 8.8 NE 15 26 8 14 1013.1 1012.8 0.0
19/11:00pm 22.1 21.1 7.5 39 7.6 W 2 6 1 3 1012.9 1012.6 0.0
19/10:30pm 20.6 18.2 7.2 42 6.9 SE 9 13 5 7 1012.9 1012.6 0.0
19/10:00pm 21.1 20.3 6.6 39 7.4 CALM 0 4 0 2 1012.3 1012.1 0.0
19/09:30pm 23.0 20.1 6.3 34 8.6 E 11 13 6 7 1012.0 1011.8 0.0
19/09:00pm 24.7 21.0 6.4 31 9.5 E 15 19 8 10 1011.5 1011.2 0.0
19/08:30pm 25.0 21.6 5.7 29 9.9 ESE 13 15 7 8 1011.5 1011.2 0.0
19/08:00pm 27.1 23.3 6.0 26 11.0 E 15 19 8 10 1011.5 1011.2 0.0
19/07:30pm 28.5 24.7 6.0 24 11.9 ENE 15 20 8 11 1011.5 1011.2 0.0
19/07:00pm 29.7 25.5 5.7 22 12.7 E 17 24 9 13 1011.4 1011.1 0.0
19/06:30pm 30.6 25.4 3.6 18 13.8 ENE 20 32 11 17 1011.1 1010.8 0.0
19/06:00pm 31.0 25.3 4.7 19 13.8 ENE 24 32 13 17 1011.0 1010.7 0.0
19/05:30pm 31.2 25.5 4.9 19 13.8 ENE 24 35 13 19 1010.9 1010.6 0.0
19/05:00pm 31.2 24.5 5.6 20 13.6 ENE 30 39 16 21 1010.9 1010.6 0.0
19/04:30pm 32.1 25.8 5.6 19 14.2 E 28 43 15 23 1011.0 1010.7 0.0
19/04:03pm 32.5 26.1 5.1 18 14.5 E 28 50 15 27 1011.1 1010.8 0.0
19/04:00pm 32.3 26.2 5.0 18 14.5 ENE 26 41 14 22 1011.2 1010.9 0.0
19/03:30pm 32.4 26.6 4.2 17 14.8 E 24 35 13 19 1011.4 1011.1 0.0
19/03:00pm 31.9 26.0 3.8 17 14.6 ENE 24 35 13 19 1011.8 1011.5 0.0
19/02:30pm 31.8 26.3 3.8 17 14.5 NE 22 37 12 20 1012.3 1012.1 0.0
19/02:00pm 31.3 26.1 3.4 17 14.3 ENE 20 28 11 15 1012.7 1012.5 0.0
19/01:30pm 30.5 25.7 2.7 17 14.0 NE 17 28 9 15 1013.1 1012.8 0.0
19/01:00pm 31.8 26.8 3.8 17 14.5 NNE 19 32 10 17 1013.5 1013.2 0.0
19/12:30pm 31.1 26.6 4.0 18 14.0 ENE 17 35 9 19 1013.7 1013.4 0.0
19/12:00pm 30.7 25.9 4.4 19 13.7 NNE 19 28 10 15 1013.9 1013.6 0.0
19/11:30am 30.8 26.1 6.0 21 13.2 ENE 20 32 11 17 1013.9 1013.6 0.0
19/11:00am 28.4 24.5 8.7 29 10.9 NE 19 35 10 19 1014.2 1013.9 0.0
19/10:30am 26.7 24.5 10.8 37 9.0 ESE 13 20 7 11 1014.4 1014.1 0.0
19/10:00am 25.7 23.9 12.2 43 7.8 ENE 13 19 7 10 1014.6 1014.3 0.0
19/09:30am 22.8 21.2 11.5 49 6.4 ENE 11 15 6 8 1014.9 1014.6 0.0
19/09:00am 22.1 21.4 12.1 53 5.7 ESE 7 15 4 8 1015.1 1014.8 0.0
19/08:30am 20.0 20.3 12.3 61 4.3 WSW 2 7 1 4 1015.1 1014.8 0.0
19/08:00am 18.0 18.6 13.1 73 2.8 WSW 2 7 1 4 1014.7 1014.4 0.0
19/07:30am 15.6 16.4 12.7 83 1.6 CALM 0 0 0 0 1014.4 1014.1 0.0
19/07:00am 12.6 12.6 11.3 92 0.7 SW 2 7 1 4 1014.1 1013.8 0.0
19/06:30am 10.2 8.4 9.4 95 0.4 WSW 9 9 5 5 1014.0 1013.7 0.0

Other Formats:

Comma delimited format used in spreadsheet applications
http://www.bom.gov.au/fwo/IDS60801/IDS60801.95670.axf

JavaScript Object Notation format (JSON) in row-major order
http://www.bom.gov.au/fwo/IDS60801/IDS60801.95670.json